sensor_id;sensor_type;location;lat;lon;timestamp;temperature;humidity
5962;DHT22;3007;50.770;0.250;2022-09-29T00:00:53;8.30;99.90
5962;DHT22;3007;50.770;0.250;2022-09-29T00:03:21;8.30;99.90
5962;DHT22;3007;50.770;0.250;2022-09-29T00:05:49;8.40;99.90
5962;DHT22;3007;50.770;0.250;2022-09-29T00:08:20;8.40;99.90
5962;DHT22;3007;50.770;0.250;2022-09-29T00:10:47;8.40;99.90
5962;DHT22;3007;50.770;0.250;2022-09-29T00:13:15;8.40;99.90
5962;DHT22;3007;50.770;0.250;2022-09-29T00:15:42;8.40;99.90
5962;DHT22;3007;50.770;0.250;2022-09-29T00:18:09;8.40;99.90
5962;DHT22;3007;50.770;0.250;2022-09-29T00:20:37;8.40;99.90
5962;DHT22;3007;50.770;0.250;2022-09-29T00:23:04;8.40;99.90
5962;DHT22;3007;50.770;0.250;2022-09-29T00:25:32;8.40;99.90
5962;DHT22;3007;50.770;0.250;2022-09-29T00:27:59;8.40;99.90
5962;DHT22;3007;50.770;0.250;2022-09-29T00:30:27;8.40;99.90
5962;DHT22;3007;50.770;0.250;2022-09-29T00:32:53;8.40;99.90
5962;DHT22;3007;50.770;0.250;2022-09-29T00:35:20;8.50;99.90
5962;DHT22;3007;50.770;0.250;2022-09-29T00:37:47;8.60;99.90
5962;DHT22;3007;50.770;0.250;2022-09-29T00:40:14;8.60;99.90
5962;DHT22;3007;50.770;0.250;2022-09-29T00:42:42;8.70;99.90
5962;DHT22;3007;50.770;0.250;2022-09-29T00:45:18;8.70;99.90
5962;DHT22;3007;50.770;0.250;2022-09-29T00:47:50;8.70;99.90
5962;DHT22;3007;50.770;0.250;2022-09-29T00:50:21;8.80;99.90
5962;DHT22;3007;50.770;0.250;2022-09-29T00:52:51;8.80;99.90
5962;DHT22;3007;50.770;0.250;2022-09-29T00:55:22;8.80;99.90
5962;DHT22;3007;50.770;0.250;2022-09-29T00:57:56;8.80;99.90
5962;DHT22;3007;50.770;0.250;2022-09-29T01:00:25;8.70;99.90
5962;DHT22;3007;50.770;0.250;2022-09-29T01:02:55;8.70;99.90
5962;DHT22;3007;50.770;0.250;2022-09-29T01:05:27;8.70;99.90
5962;DHT22;3007;50.770;0.250;2022-09-29T01:07:58;8.70;99.90
5962;DHT22;3007;50.770;0.250;2022-09-29T01:10:28;8.60;99.90
5962;DHT22;3007;50.770;0.250;2022-09-29T01:12:56;8.60;99.90
5962;DHT22;3007;50.770;0.250;2022-09-29T01:15:24;8.50;99.90
5962;DHT22;3007;50.770;0.250;2022-09-29T01:17:54;8.60;99.90
5962;DHT22;3007;50.770;0.250;2022-09-29T01:20:22;8.60;99.90
5962;DHT22;3007;50.770;0.250;2022-09-29T01:26:20;8.60;99.90
5962;DHT22;3007;50.770;0.250;2022-09-29T01:29:09;8.60;99.90
5962;DHT22;3007;50.770;0.250;2022-09-29T01:31:44;8.60;99.90
5962;DHT22;3007;50.770;0.250;2022-09-29T01:34:25;8.50;99.90
5962;DHT22;3007;50.770;0.250;2022-09-29T01:37:00;8.50;99.90
5962;DHT22;3007;50.770;0.250;2022-09-29T01:39:33;8.40;99.90
5962;DHT22;3007;50.770;0.250;2022-09-29T01:42:05;8.40;99.90
5962;DHT22;3007;50.770;0.250;2022-09-29T01:44:38;8.40;99.90
5962;DHT22;3007;50.770;0.250;2022-09-29T01:47:09;8.30;99.90
5962;DHT22;3007;50.770;0.250;2022-09-29T01:49:42;8.30;99.90
5962;DHT22;3007;50.770;0.250;2022-09-29T01:52:12;8.30;99.90
5962;DHT22;3007;50.770;0.250;2022-09-29T01:54:43;8.30;99.90
5962;DHT22;3007;50.770;0.250;2022-09-29T01:57:13;8.30;99.90
5962;DHT22;3007;50.770;0.250;2022-09-29T01:59:44;8.20;99.90
5962;DHT22;3007;50.770;0.250;2022-09-29T02:02:16;8.20;99.90
5962;DHT22;3007;50.770;0.250;2022-09-29T02:04:49;8.20;99.90
5962;DHT22;3007;50.770;0.250;2022-09-29T02:07:23;8.20;99.90
5962;DHT22;3007;50.770;0.250;2022-09-29T02:09:55;8.20;99.90
5962;DHT22;3007;50.770;0.250;2022-09-29T02:12:26;8.20;99.90
5962;DHT22;3007;50.770;0.250;2022-09-29T02:14:56;8.20;99.90
5962;DHT22;3007;50.770;0.250;2022-09-29T02:17:29;8.20;99.90
5962;DHT22;3007;50.770;0.250;2022-09-29T02:19:57;8.10;99.90
5962;DHT22;3007;50.770;0.250;2022-09-29T02:22:24;8.10;99.90
5962;DHT22;3007;50.770;0.250;2022-09-29T02:24:52;8.10;99.90
5962;DHT22;3007;50.770;0.250;2022-09-29T02:27:21;8.00;99.90
5962;DHT22;3007;50.770;0.250;2022-09-29T02:29:48;7.90;99.90
5962;DHT22;3007;50.770;0.250;2022-09-29T02:32:15;7.90;99.90
5962;DHT22;3007;50.770;0.250;2022-09-29T02:34:45;7.90;99.90
5962;DHT22;3007;50.770;0.250;2022-09-29T02:37:31;8.00;99.90
5962;DHT22;3007;50.770;0.250;2022-09-29T02:40:10;8.00;99.90
5962;DHT22;3007;50.770;0.250;2022-09-29T02:42:50;8.10;99.90
5962;DHT22;3007;50.770;0.250;2022-09-29T02:45:27;8.10;99.90
5962;DHT22;3007;50.770;0.250;2022-09-29T02:48:11;8.10;99.90
5962;DHT22;3007;50.770;0.250;2022-09-29T02:50:52;8.00;99.90
5962;DHT22;3007;50.770;0.250;2022-09-29T02:53:40;8.00;99.90
5962;DHT22;3007;50.770;0.250;2022-09-29T02:56:13;8.00;99.90
5962;DHT22;3007;50.770;0.250;2022-09-29T02:58:48;8.00;99.90
5962;DHT22;3007;50.770;0.250;2022-09-29T03:01:17;8.00;99.90
5962;DHT22;3007;50.770;0.250;2022-09-29T03:03:43;8.00;99.90
5962;DHT22;3007;50.770;0.250;2022-09-29T03:06:12;8.00;99.90
5962;DHT22;3007;50.770;0.250;2022-09-29T03:08:40;7.90;99.90
5962;DHT22;3007;50.770;0.250;2022-09-29T03:11:07;8.00;99.90
5962;DHT22;3007;50.770;0.250;2022-09-29T03:13:34;8.00;99.90
5962;DHT22;3007;50.770;0.250;2022-09-29T03:16:01;8.00;99.90
5962;DHT22;3007;50.770;0.250;2022-09-29T03:18:27;8.00;99.90
5962;DHT22;3007;50.770;0.250;2022-09-29T03:20:54;8.00;99.90
5962;DHT22;3007;50.770;0.250;2022-09-29T03:23:23;7.90;99.90
5962;DHT22;3007;50.770;0.250;2022-09-29T03:25:49;7.90;99.90
5962;DHT22;3007;50.770;0.250;2022-09-29T03:28:19;7.80;99.90
5962;DHT22;3007;50.770;0.250;2022-09-29T03:30:45;7.70;99.90
5962;DHT22;3007;50.770;0.250;2022-09-29T03:33:12;7.70;99.90
5962;DHT22;3007;50.770;0.250;2022-09-29T03:35:40;7.60;99.90
5962;DHT22;3007;50.770;0.250;2022-09-29T03:38:07;7.60;99.90
5962;DHT22;3007;50.770;0.250;2022-09-29T03:40:35;7.60;99.90
5962;DHT22;3007;50.770;0.250;2022-09-29T03:43:02;7.50;99.90
5962;DHT22;3007;50.770;0.250;2022-09-29T03:45:29;7.50;99.90
5962;DHT22;3007;50.770;0.250;2022-09-29T03:47:56;7.50;99.90
5962;DHT22;3007;50.770;0.250;2022-09-29T03:50:23;7.50;99.90
5962;DHT22;3007;50.770;0.250;2022-09-29T03:52:49;7.40;99.90
5962;DHT22;3007;50.770;0.250;2022-09-29T03:55:16;7.50;99.90
5962;DHT22;3007;50.770;0.250;2022-09-29T03:57:44;7.40;99.90
5962;DHT22;3007;50.770;0.250;2022-09-29T04:00:12;7.40;99.90
5962;DHT22;3007;50.770;0.250;2022-09-29T04:02:39;7.40;99.90
5962;DHT22;3007;50.770;0.250;2022-09-29T04:05:06;7.30;99.90
5962;DHT22;3007;50.770;0.250;2022-09-29T04:07:33;7.30;99.90
5962;DHT22;3007;50.770;0.250;2022-09-29T04:10:00;7.30;99.90
5962;DHT22;3007;50.770;0.250;2022-09-29T04:12:27;7.20;99.90
5962;DHT22;3007;50.770;0.250;2022-09-29T04:14:55;7.20;99.90
5962;DHT22;3007;50.770;0.250;2022-09-29T04:17:23;7.10;99.90
5962;DHT22;3007;50.770;0.250;2022-09-29T04:19:49;7.10;99.90
5962;DHT22;3007;50.770;0.250;2022-09-29T04:22:16;7.10;99.90
5962;DHT22;3007;50.770;0.250;2022-09-29T04:24:44;7.10;99.90
5962;DHT22;3007;50.770;0.250;2022-09-29T04:27:12;7.10;99.90
5962;DHT22;3007;50.770;0.250;2022-09-29T04:29:39;7.00;99.90
5962;DHT22;3007;50.770;0.250;2022-09-29T04:32:08;7.00;99.90
5962;DHT22;3007;50.770;0.250;2022-09-29T04:34:34;7.00;99.90
5962;DHT22;3007;50.770;0.250;2022-09-29T04:37:02;6.90;99.90
5962;DHT22;3007;50.770;0.250;2022-09-29T04:39:29;6.90;99.90
5962;DHT22;3007;50.770;0.250;2022-09-29T04:41:56;6.90;99.90
5962;DHT22;3007;50.770;0.250;2022-09-29T04:44:22;6.90;99.90
5962;DHT22;3007;50.770;0.250;2022-09-29T04:46:50;7.00;99.90
5962;DHT22;3007;50.770;0.250;2022-09-29T04:49:19;7.10;99.90
5962;DHT22;3007;50.770;0.250;2022-09-29T04:51:46;7.10;99.90
5962;DHT22;3007;50.770;0.250;2022-09-29T04:54:13;7.10;99.90
5962;DHT22;3007;50.770;0.250;2022-09-29T04:56:40;7.20;99.90
5962;DHT22;3007;50.770;0.250;2022-09-29T04:59:08;7.20;99.90
5962;DHT22;3007;50.770;0.250;2022-09-29T05:01:35;7.30;99.90
5962;DHT22;3007;50.770;0.250;2022-09-29T05:04:02;7.30;99.90
5962;DHT22;3007;50.770;0.250;2022-09-29T05:06:30;7.40;99.90
5962;DHT22;3007;50.770;0.250;2022-09-29T05:08:57;7.40;99.90
5962;DHT22;3007;50.770;0.250;2022-09-29T05:11:24;7.50;99.90
5962;DHT22;3007;50.770;0.250;2022-09-29T05:13:51;7.40;99.90
5962;DHT22;3007;50.770;0.250;2022-09-29T05:16:17;7.40;99.90
5962;DHT22;3007;50.770;0.250;2022-09-29T05:18:44;7.40;99.90
5962;DHT22;3007;50.770;0.250;2022-09-29T05:21:11;7.40;99.90
5962;DHT22;3007;50.770;0.250;2022-09-29T05:23:39;7.30;99.90
5962;DHT22;3007;50.770;0.250;2022-09-29T05:26:07;7.30;99.90
5962;DHT22;3007;50.770;0.250;2022-09-29T05:28:35;7.20;99.90
5962;DHT22;3007;50.770;0.250;2022-09-29T05:31:06;7.20;99.90
5962;DHT22;3007;50.770;0.250;2022-09-29T05:33:33;7.20;99.90
5962;DHT22;3007;50.770;0.250;2022-09-29T05:36:00;7.30;99.90
5962;DHT22;3007;50.770;0.250;2022-09-29T05:38:30;7.40;99.90
5962;DHT22;3007;50.770;0.250;2022-09-29T05:41:02;7.40;99.90
5962;DHT22;3007;50.770;0.250;2022-09-29T05:43:29;7.40;99.90
5962;DHT22;3007;50.770;0.250;2022-09-29T05:45:59;7.30;99.90
5962;DHT22;3007;50.770;0.250;2022-09-29T05:48:26;7.30;99.90
5962;DHT22;3007;50.770;0.250;2022-09-29T05:50:55;7.30;99.90
5962;DHT22;3007;50.770;0.250;2022-09-29T05:53:22;7.20;99.90
5962;DHT22;3007;50.770;0.250;2022-09-29T05:55:49;7.20;99.90
5962;DHT22;3007;50.770;0.250;2022-09-29T05:58:17;7.20;99.90
5962;DHT22;3007;50.770;0.250;2022-09-29T06:00:44;7.10;99.90
5962;DHT22;3007;50.770;0.250;2022-09-29T06:03:11;7.10;99.90
5962;DHT22;3007;50.770;0.250;2022-09-29T06:05:39;7.20;99.90
5962;DHT22;3007;50.770;0.250;2022-09-29T06:08:06;7.20;99.90
5962;DHT22;3007;50.770;0.250;2022-09-29T06:10:33;7.30;99.90
5962;DHT22;3007;50.770;0.250;2022-09-29T06:13:00;7.40;99.90
5962;DHT22;3007;50.770;0.250;2022-09-29T06:15:29;7.40;99.90
5962;DHT22;3007;50.770;0.250;2022-09-29T06:17:56;7.50;99.90
5962;DHT22;3007;50.770;0.250;2022-09-29T06:20:23;7.50;99.90
5962;DHT22;3007;50.770;0.250;2022-09-29T06:22:52;7.50;99.90
5962;DHT22;3007;50.770;0.250;2022-09-29T06:25:19;7.50;99.90
5962;DHT22;3007;50.770;0.250;2022-09-29T06:27:46;7.60;99.90
5962;DHT22;3007;50.770;0.250;2022-09-29T06:30:14;7.70;99.90
5962;DHT22;3007;50.770;0.250;2022-09-29T06:32:42;7.80;99.90
5962;DHT22;3007;50.770;0.250;2022-09-29T06:35:09;7.90;99.90
5962;DHT22;3007;50.770;0.250;2022-09-29T06:37:54;8.10;99.90
5962;DHT22;3007;50.770;0.250;2022-09-29T06:40:21;8.10;99.90
5962;DHT22;3007;50.770;0.250;2022-09-29T06:42:49;8.20;99.90
5962;DHT22;3007;50.770;0.250;2022-09-29T06:45:16;8.20;99.90
5962;DHT22;3007;50.770;0.250;2022-09-29T06:47:45;8.30;99.90
5962;DHT22;3007;50.770;0.250;2022-09-29T06:50:15;8.40;99.90
5962;DHT22;3007;50.770;0.250;2022-09-29T06:52:42;8.50;99.90
5962;DHT22;3007;50.770;0.250;2022-09-29T06:55:09;8.60;99.90
5962;DHT22;3007;50.770;0.250;2022-09-29T06:57:35;8.60;99.90
5962;DHT22;3007;50.770;0.250;2022-09-29T07:00:03;8.70;99.90
5962;DHT22;3007;50.770;0.250;2022-09-29T07:02:31;8.90;99.90
5962;DHT22;3007;50.770;0.250;2022-09-29T07:04:59;9.30;99.90
5962;DHT22;3007;50.770;0.250;2022-09-29T07:07:26;9.40;99.90
5962;DHT22;3007;50.770;0.250;2022-09-29T07:09:53;9.50;99.90
5962;DHT22;3007;50.770;0.250;2022-09-29T07:12:20;9.50;99.90
5962;DHT22;3007;50.770;0.250;2022-09-29T07:14:47;9.60;99.90
5962;DHT22;3007;50.770;0.250;2022-09-29T07:17:13;9.70;99.90
5962;DHT22;3007;50.770;0.250;2022-09-29T07:19:41;10.00;99.90
5962;DHT22;3007;50.770;0.250;2022-09-29T07:22:09;10.40;99.90
5962;DHT22;3007;50.770;0.250;2022-09-29T07:24:36;10.80;99.90
5962;DHT22;3007;50.770;0.250;2022-09-29T07:27:03;11.20;99.90
5962;DHT22;3007;50.770;0.250;2022-09-29T07:29:30;11.60;99.90
5962;DHT22;3007;50.770;0.250;2022-09-29T07:31:59;12.00;99.90
5962;DHT22;3007;50.770;0.250;2022-09-29T07:34:26;12.20;99.90
5962;DHT22;3007;50.770;0.250;2022-09-29T07:36:53;12.50;99.90
5962;DHT22;3007;50.770;0.250;2022-09-29T07:39:21;12.60;99.90
5962;DHT22;3007;50.770;0.250;2022-09-29T07:41:49;12.60;99.90
5962;DHT22;3007;50.770;0.250;2022-09-29T07:44:16;11.90;99.90
5962;DHT22;3007;50.770;0.250;2022-09-29T07:46:43;12.60;99.90
5962;DHT22;3007;50.770;0.250;2022-09-29T07:49:10;12.50;99.90
5962;DHT22;3007;50.770;0.250;2022-09-29T07:51:37;12.40;99.90
5962;DHT22;3007;50.770;0.250;2022-09-29T07:54:04;12.20;99.90
5962;DHT22;3007;50.770;0.250;2022-09-29T07:56:32;12.20;99.90
5962;DHT22;3007;50.770;0.250;2022-09-29T07:59:00;12.00;99.90
5962;DHT22;3007;50.770;0.250;2022-09-29T08:01:29;11.90;99.90
5962;DHT22;3007;50.770;0.250;2022-09-29T08:03:56;11.70;99.90
5962;DHT22;3007;50.770;0.250;2022-09-29T08:06:25;11.50;99.90
5962;DHT22;3007;50.770;0.250;2022-09-29T08:08:52;11.40;99.90
5962;DHT22;3007;50.770;0.250;2022-09-29T08:11:22;11.30;99.90
5962;DHT22;3007;50.770;0.250;2022-09-29T08:13:51;11.30;99.90
5962;DHT22;3007;50.770;0.250;2022-09-29T08:16:19;11.20;99.90
5962;DHT22;3007;50.770;0.250;2022-09-29T08:18:46;11.10;99.90
5962;DHT22;3007;50.770;0.250;2022-09-29T08:21:13;11.10;99.90
5962;DHT22;3007;50.770;0.250;2022-09-29T08:23:41;11.10;99.90
5962;DHT22;3007;50.770;0.250;2022-09-29T08:26:10;11.10;99.90
5962;DHT22;3007;50.770;0.250;2022-09-29T08:28:39;11.10;99.90
5962;DHT22;3007;50.770;0.250;2022-09-29T08:31:09;11.10;99.90
5962;DHT22;3007;50.770;0.250;2022-09-29T08:33:36;11.10;99.90
5962;DHT22;3007;50.770;0.250;2022-09-29T08:36:04;11.10;99.90
5962;DHT22;3007;50.770;0.250;2022-09-29T08:38:39;11.00;99.90
5962;DHT22;3007;50.770;0.250;2022-09-29T08:41:20;11.10;99.90
5962;DHT22;3007;50.770;0.250;2022-09-29T08:43:54;11.10;99.90
5962;DHT22;3007;50.770;0.250;2022-09-29T08:46:27;11.10;99.90
5962;DHT22;3007;50.770;0.250;2022-09-29T08:48:56;11.10;99.90
5962;DHT22;3007;50.770;0.250;2022-09-29T08:51:28;11.10;99.90
5962;DHT22;3007;50.770;0.250;2022-09-29T08:53:59;11.20;99.90
5962;DHT22;3007;50.770;0.250;2022-09-29T08:56:28;11.20;99.90
5962;DHT22;3007;50.770;0.250;2022-09-29T08:58:55;11.20;99.90
5962;DHT22;3007;50.770;0.250;2022-09-29T09:01:29;11.20;99.90
5962;DHT22;3007;50.770;0.250;2022-09-29T09:04:26;11.20;99.90
5962;DHT22;3007;50.770;0.250;2022-09-29T09:07:05;11.20;99.90
5962;DHT22;3007;50.770;0.250;2022-09-29T09:09:55;11.20;99.90
5962;DHT22;3007;50.770;0.250;2022-09-29T09:12:49;11.10;99.90
5962;DHT22;3007;50.770;0.250;2022-09-29T09:15:31;11.20;99.90
5962;DHT22;3007;50.770;0.250;2022-09-29T09:18:12;11.20;99.90
5962;DHT22;3007;50.770;0.250;2022-09-29T09:20:51;11.20;99.90
5962;DHT22;3007;50.770;0.250;2022-09-29T09:23:20;11.30;99.90
5962;DHT22;3007;50.770;0.250;2022-09-29T09:25:52;11.30;99.90
5962;DHT22;3007;50.770;0.250;2022-09-29T09:28:24;11.30;99.90
5962;DHT22;3007;50.770;0.250;2022-09-29T09:30:57;11.40;99.90
5962;DHT22;3007;50.770;0.250;2022-09-29T09:33:31;11.40;99.90
5962;DHT22;3007;50.770;0.250;2022-09-29T09:36:05;11.40;99.90
5962;DHT22;3007;50.770;0.250;2022-09-29T09:38:42;11.40;99.90
5962;DHT22;3007;50.770;0.250;2022-09-29T09:41:13;11.50;99.90
5962;DHT22;3007;50.770;0.250;2022-09-29T09:43:43;11.50;99.90
5962;DHT22;3007;50.770;0.250;2022-09-29T09:46:16;11.50;99.90
5962;DHT22;3007;50.770;0.250;2022-09-29T09:48:54;11.50;99.90
5962;DHT22;3007;50.770;0.250;2022-09-29T09:51:37;11.60;99.90
5962;DHT22;3007;50.770;0.250;2022-09-29T09:54:15;11.60;99.90
5962;DHT22;3007;50.770;0.250;2022-09-29T09:57:01;11.70;99.90
5962;DHT22;3007;50.770;0.250;2022-09-29T09:59:41;11.70;99.90
5962;DHT22;3007;50.770;0.250;2022-09-29T10:02:16;11.70;99.90
5962;DHT22;3007;50.770;0.250;2022-09-29T10:04:47;11.80;99.90
5962;DHT22;3007;50.770;0.250;2022-09-29T10:07:15;11.80;99.90
5962;DHT22;3007;50.770;0.250;2022-09-29T10:09:42;11.80;99.90
5962;DHT22;3007;50.770;0.250;2022-09-29T10:12:14;11.80;99.90
5962;DHT22;3007;50.770;0.250;2022-09-29T10:14:46;11.80;99.90
5962;DHT22;3007;50.770;0.250;2022-09-29T10:17:15;11.80;99.90
5962;DHT22;3007;50.770;0.250;2022-09-29T10:19:59;11.90;99.90
5962;DHT22;3007;50.770;0.250;2022-09-29T10:22:30;11.90;99.90
5962;DHT22;3007;50.770;0.250;2022-09-29T10:25:06;11.90;99.90
5962;DHT22;3007;50.770;0.250;2022-09-29T10:27:35;12.00;99.90
5962;DHT22;3007;50.770;0.250;2022-09-29T10:30:16;12.00;99.90
5962;DHT22;3007;50.770;0.250;2022-09-29T10:32:44;12.00;99.90
5962;DHT22;3007;50.770;0.250;2022-09-29T10:35:21;12.10;99.90
5962;DHT22;3007;50.770;0.250;2022-09-29T10:37:57;12.10;99.90
5962;DHT22;3007;50.770;0.250;2022-09-29T10:40:25;12.20;99.90
5962;DHT22;3007;50.770;0.250;2022-09-29T10:42:52;12.20;99.90
5962;DHT22;3007;50.770;0.250;2022-09-29T10:45:20;12.30;99.90
5962;DHT22;3007;50.770;0.250;2022-09-29T10:48:06;12.40;99.90
5962;DHT22;3007;50.770;0.250;2022-09-29T10:50:37;12.50;99.90
5962;DHT22;3007;50.770;0.250;2022-09-29T10:53:23;12.60;99.90
5962;DHT22;3007;50.770;0.250;2022-09-29T10:55:55;12.70;99.90
5962;DHT22;3007;50.770;0.250;2022-09-29T11:01:03;13.10;99.90
5962;DHT22;3007;50.770;0.250;2022-09-29T11:03:32;13.20;99.90
5962;DHT22;3007;50.770;0.250;2022-09-29T11:06:05;13.30;99.90
5962;DHT22;3007;50.770;0.250;2022-09-29T11:08:32;13.40;99.90
5962;DHT22;3007;50.770;0.250;2022-09-29T11:11:20;13.40;99.90
5962;DHT22;3007;50.770;0.250;2022-09-29T11:13:48;13.50;99.90
5962;DHT22;3007;50.770;0.250;2022-09-29T11:16:20;13.60;99.90
5962;DHT22;3007;50.770;0.250;2022-09-29T11:18:51;13.60;99.90
5962;DHT22;3007;50.770;0.250;2022-09-29T11:24:41;13.80;99.90
5962;DHT22;3007;50.770;0.250;2022-09-29T11:27:24;13.80;99.90
5962;DHT22;3007;50.770;0.250;2022-09-29T11:30:00;13.80;99.90
5962;DHT22;3007;50.770;0.250;2022-09-29T11:32:42;13.90;99.90
5962;DHT22;3007;50.770;0.250;2022-09-29T11:35:21;13.90;99.90
5962;DHT22;3007;50.770;0.250;2022-09-29T11:38:10;13.90;99.90
5962;DHT22;3007;50.770;0.250;2022-09-29T11:40:56;13.90;99.90
5962;DHT22;3007;50.770;0.250;2022-09-29T11:43:40;14.00;99.90
5962;DHT22;3007;50.770;0.250;2022-09-29T11:46:28;14.10;99.90
5962;DHT22;3007;50.770;0.250;2022-09-29T11:49:31;14.10;99.90
5962;DHT22;3007;50.770;0.250;2022-09-29T11:52:24;14.10;99.90
5962;DHT22;3007;50.770;0.250;2022-09-29T11:55:03;14.20;99.90
5962;DHT22;3007;50.770;0.250;2022-09-29T11:57:46;14.20;99.90
5962;DHT22;3007;50.770;0.250;2022-09-29T12:00:18;14.20;99.90
5962;DHT22;3007;50.770;0.250;2022-09-29T12:03:26;14.20;99.90
5962;DHT22;3007;50.770;0.250;2022-09-29T12:06:25;14.20;99.90
5962;DHT22;3007;50.770;0.250;2022-09-29T12:09:04;14.20;99.90
5962;DHT22;3007;50.770;0.250;2022-09-29T12:11:38;14.20;99.90
5962;DHT22;3007;50.770;0.250;2022-09-29T12:14:14;14.20;99.90
5962;DHT22;3007;50.770;0.250;2022-09-29T12:16:48;14.10;99.90
5962;DHT22;3007;50.770;0.250;2022-09-29T12:19:19;14.10;99.90
5962;DHT22;3007;50.770;0.250;2022-09-29T12:21:50;14.10;99.90
5962;DHT22;3007;50.770;0.250;2022-09-29T12:24:20;14.00;99.90
5962;DHT22;3007;50.770;0.250;2022-09-29T12:26:51;14.00;99.90
5962;DHT22;3007;50.770;0.250;2022-09-29T12:29:28;14.00;99.90
5962;DHT22;3007;50.770;0.250;2022-09-29T12:31:58;13.90;99.90
5962;DHT22;3007;50.770;0.250;2022-09-29T12:34:31;13.70;99.90
5962;DHT22;3007;50.770;0.250;2022-09-29T12:37:03;13.90;99.90
5962;DHT22;3007;50.770;0.250;2022-09-29T12:39:39;14.00;99.90
5962;DHT22;3007;50.770;0.250;2022-09-29T12:42:19;14.10;99.90
5962;DHT22;3007;50.770;0.250;2022-09-29T12:44:52;14.30;99.90
5962;DHT22;3007;50.770;0.250;2022-09-29T12:47:27;14.50;99.90
5962;DHT22;3007;50.770;0.250;2022-09-29T12:50:02;14.70;99.90
5962;DHT22;3007;50.770;0.250;2022-09-29T12:52:36;14.80;99.90
5962;DHT22;3007;50.770;0.250;2022-09-29T12:55:09;15.00;99.90
5962;DHT22;3007;50.770;0.250;2022-09-29T12:57:42;15.10;99.90
5962;DHT22;3007;50.770;0.250;2022-09-29T13:00:13;15.20;99.90
5962;DHT22;3007;50.770;0.250;2022-09-29T13:03:00;15.20;99.90
5962;DHT22;3007;50.770;0.250;2022-09-29T13:05:57;15.20;99.90
5962;DHT22;3007;50.770;0.250;2022-09-29T13:09:00;15.20;99.90
5962;DHT22;3007;50.770;0.250;2022-09-29T13:14:42;15.20;99.90
5962;DHT22;3007;50.770;0.250;2022-09-29T13:17:28;15.30;99.90
5962;DHT22;3007;50.770;0.250;2022-09-29T13:20:16;15.30;99.90
5962;DHT22;3007;50.770;0.250;2022-09-29T13:25:57;15.30;99.90
5962;DHT22;3007;50.770;0.250;2022-09-29T13:28:35;15.30;99.90
5962;DHT22;3007;50.770;0.250;2022-09-29T13:31:06;15.20;99.90
5962;DHT22;3007;50.770;0.250;2022-09-29T13:33:36;15.20;99.90
5962;DHT22;3007;50.770;0.250;2022-09-29T13:36:04;15.10;99.90
5962;DHT22;3007;50.770;0.250;2022-09-29T13:38:33;15.10;99.90
5962;DHT22;3007;50.770;0.250;2022-09-29T13:41:10;15.10;99.90
5962;DHT22;3007;50.770;0.250;2022-09-29T13:43:38;15.00;99.90
5962;DHT22;3007;50.770;0.250;2022-09-29T13:46:35;14.90;99.90
5962;DHT22;3007;50.770;0.250;2022-09-29T13:49:13;14.80;99.90
5962;DHT22;3007;50.770;0.250;2022-09-29T13:54:38;14.60;99.90
5962;DHT22;3007;50.770;0.250;2022-09-29T13:57:23;14.50;99.90
5962;DHT22;3007;50.770;0.250;2022-09-29T14:00:24;14.50;99.90
5962;DHT22;3007;50.770;0.250;2022-09-29T14:03:03;14.50;99.90
5962;DHT22;3007;50.770;0.250;2022-09-29T14:06:04;14.40;99.90
5962;DHT22;3007;50.770;0.250;2022-09-29T14:08:37;14.40;99.90
5962;DHT22;3007;50.770;0.250;2022-09-29T14:11:17;14.40;99.90
5962;DHT22;3007;50.770;0.250;2022-09-29T14:13:52;14.30;99.90
5962;DHT22;3007;50.770;0.250;2022-09-29T14:16:33;14.30;99.90
5962;DHT22;3007;50.770;0.250;2022-09-29T14:19:04;14.40;99.90
5962;DHT22;3007;50.770;0.250;2022-09-29T14:21:49;14.40;99.90
5962;DHT22;3007;50.770;0.250;2022-09-29T14:24:43;14.40;99.90
5962;DHT22;3007;50.770;0.250;2022-09-29T14:27:28;14.40;99.90
5962;DHT22;3007;50.770;0.250;2022-09-29T14:30:09;14.40;99.90
5962;DHT22;3007;50.770;0.250;2022-09-29T14:32:40;14.30;99.90
5962;DHT22;3007;50.770;0.250;2022-09-29T14:35:15;14.30;99.90
5962;DHT22;3007;50.770;0.250;2022-09-29T14:37:45;14.30;99.90
5962;DHT22;3007;50.770;0.250;2022-09-29T14:40:17;14.30;99.90
5962;DHT22;3007;50.770;0.250;2022-09-29T14:43:11;15.80;99.90
5962;DHT22;3007;50.770;0.250;2022-09-29T14:55:50;14.30;99.90
5962;DHT22;3007;50.770;0.250;2022-09-29T14:58:30;14.20;99.90
5962;DHT22;3007;50.770;0.250;2022-09-29T15:01:07;14.20;99.90
5962;DHT22;3007;50.770;0.250;2022-09-29T15:03:42;14.10;99.90
5962;DHT22;3007;50.770;0.250;2022-09-29T15:06:12;14.00;99.90
5962;DHT22;3007;50.770;0.250;2022-09-29T15:08:40;13.90;99.90
5962;DHT22;3007;50.770;0.250;2022-09-29T15:11:30;13.80;99.90
5962;DHT22;3007;50.770;0.250;2022-09-29T15:13:58;13.70;99.90
5962;DHT22;3007;50.770;0.250;2022-09-29T15:16:31;13.60;99.90
5962;DHT22;3007;50.770;0.250;2022-09-29T15:19:16;13.60;99.90
5962;DHT22;3007;50.770;0.250;2022-09-29T15:21:56;13.50;99.90
5962;DHT22;3007;50.770;0.250;2022-09-29T15:24:48;13.40;99.90
5962;DHT22;3007;50.770;0.250;2022-09-29T15:27:19;13.30;99.90
5962;DHT22;3007;50.770;0.250;2022-09-29T15:29:47;13.30;99.90
5962;DHT22;3007;50.770;0.250;2022-09-29T15:32:20;13.30;99.90
5962;DHT22;3007;50.770;0.250;2022-09-29T15:34:48;13.30;99.90
5962;DHT22;3007;50.770;0.250;2022-09-29T15:37:15;13.40;99.90
5962;DHT22;3007;50.770;0.250;2022-09-29T15:39:48;13.40;99.90
5962;DHT22;3007;50.770;0.250;2022-09-29T15:42:18;13.40;99.90
5962;DHT22;3007;50.770;0.250;2022-09-29T15:44:51;13.50;99.90
5962;DHT22;3007;50.770;0.250;2022-09-29T15:47:27;13.50;99.90
5962;DHT22;3007;50.770;0.250;2022-09-29T15:49:57;13.60;99.90
5962;DHT22;3007;50.770;0.250;2022-09-29T15:52:27;13.60;99.90
5962;DHT22;3007;50.770;0.250;2022-09-29T15:54:56;13.60;99.90
5962;DHT22;3007;50.770;0.250;2022-09-29T15:57:40;13.60;99.90
5962;DHT22;3007;50.770;0.250;2022-09-29T16:03:27;13.60;99.90
5962;DHT22;3007;50.770;0.250;2022-09-29T16:06:05;13.70;99.90
5962;DHT22;3007;50.770;0.250;2022-09-29T16:08:37;13.70;99.90
5962;DHT22;3007;50.770;0.250;2022-09-29T16:11:08;13.60;99.90
5962;DHT22;3007;50.770;0.250;2022-09-29T16:13:49;13.60;99.90
5962;DHT22;3007;50.770;0.250;2022-09-29T16:16:18;13.60;99.90
5962;DHT22;3007;50.770;0.250;2022-09-29T16:18:50;13.50;99.90
5962;DHT22;3007;50.770;0.250;2022-09-29T16:21:21;13.40;99.90
5962;DHT22;3007;50.770;0.250;2022-09-29T16:23:51;13.40;99.90
5962;DHT22;3007;50.770;0.250;2022-09-29T16:26:33;13.40;99.90
5962;DHT22;3007;50.770;0.250;2022-09-29T16:29:06;13.30;99.90
5962;DHT22;3007;50.770;0.250;2022-09-29T16:31:34;13.30;99.90
5962;DHT22;3007;50.770;0.250;2022-09-29T16:34:02;13.30;99.90
5962;DHT22;3007;50.770;0.250;2022-09-29T16:36:30;13.30;99.90
5962;DHT22;3007;50.770;0.250;2022-09-29T16:39:00;13.30;99.90
5962;DHT22;3007;50.770;0.250;2022-09-29T16:41:29;13.30;99.90
5962;DHT22;3007;50.770;0.250;2022-09-29T16:44:04;14.20;99.90
5962;DHT22;3007;50.770;0.250;2022-09-29T16:46:33;13.40;99.90
5962;DHT22;3007;50.770;0.250;2022-09-29T16:49:02;13.40;99.90
5962;DHT22;3007;50.770;0.250;2022-09-29T16:51:30;13.40;99.90
5962;DHT22;3007;50.770;0.250;2022-09-29T16:53:58;13.30;99.90
5962;DHT22;3007;50.770;0.250;2022-09-29T16:56:27;13.30;99.90
5962;DHT22;3007;50.770;0.250;2022-09-29T16:59:08;13.20;99.90
5962;DHT22;3007;50.770;0.250;2022-09-29T17:01:37;13.10;99.90
5962;DHT22;3007;50.770;0.250;2022-09-29T17:04:05;12.90;99.90
5962;DHT22;3007;50.770;0.250;2022-09-29T17:06:32;12.80;99.90
5962;DHT22;3007;50.770;0.250;2022-09-29T17:08:59;12.70;99.90
5962;DHT22;3007;50.770;0.250;2022-09-29T17:11:26;12.60;99.90
5962;DHT22;3007;50.770;0.250;2022-09-29T17:13:53;12.50;99.90